createdAt,value
2023-02-26T00:00:47.211Z,0.00
2023-02-26T00:05:50.652Z,0.00
2023-02-26T00:10:54.752Z,0.00
2023-02-26T00:16:01.837Z,0.00
2023-02-26T00:21:05.323Z,0.00
2023-02-26T00:26:08.051Z,0.00
2023-02-26T00:31:13.292Z,0.00
2023-02-26T00:36:22.588Z,0.00
2023-02-26T00:41:26.191Z,0.00
2023-02-26T00:46:39.917Z,0.00
2023-02-26T00:51:49.682Z,0.00
2023-02-26T00:56:54.103Z,0.00
2023-02-26T01:01:58.205Z,0.00
2023-02-26T01:07:01.561Z,0.00
2023-02-26T01:12:08.411Z,0.00
2023-02-26T01:17:19.711Z,0.00
2023-02-26T01:22:27.133Z,0.00
2023-02-26T01:27:30.419Z,0.00
2023-02-26T01:32:44.081Z,0.00
2023-02-26T01:37:54.866Z,0.00
2023-02-26T01:43:04.390Z,0.00
2023-02-26T01:48:19.671Z,0.00
2023-02-26T01:53:24.513Z,0.00
2023-02-26T01:58:31.355Z,0.00
2023-02-26T02:03:40.644Z,0.00
2023-02-26T02:08:44.254Z,0.00
2023-02-26T02:14:01.308Z,0.00
2023-02-26T02:19:19.702Z,0.00
2023-02-26T02:24:36.115Z,0.00
2023-02-26T02:30:04.505Z,0.00
2023-02-26T02:35:16.684Z,0.00
2023-02-26T02:40:23.668Z,0.00
2023-02-26T02:45:32.614Z,0.00
2023-02-26T02:50:42.680Z,0.00
2023-02-26T02:55:51.954Z,0.00
2023-02-26T03:01:01.636Z,0.00
2023-02-26T03:06:06.143Z,0.00
2023-02-26T03:11:09.728Z,0.00
2023-02-26T03:16:41.129Z,0.00
2023-02-26T03:21:52.572Z,0.00
2023-02-26T03:27:19.682Z,0.00
2023-02-26T03:32:28.839Z,0.00
2023-02-26T03:37:37.748Z,0.00
2023-02-26T03:42:47.433Z,0.00
2023-02-26T03:47:54.134Z,0.00
2023-02-26T03:53:02.132Z,0.00
2023-02-26T03:58:14.256Z,0.00
2023-02-26T04:03:53.562Z,0.00
2023-02-26T04:08:59.074Z,0.00
2023-02-26T04:14:02.827Z,0.00
2023-02-26T04:19:08.707Z,0.00
2023-02-26T04:24:13.808Z,0.00
2023-02-26T04:29:16.753Z,0.00
2023-02-26T04:34:19.792Z,0.00
2023-02-26T04:39:24.333Z,0.00
2023-02-26T04:44:27.384Z,0.00
2023-02-26T04:49:30.465Z,0.00
2023-02-26T04:54:34.588Z,0.00
2023-02-26T04:59:38.669Z,0.00
2023-02-26T05:04:42.575Z,0.00
2023-02-26T05:09:46.794Z,0.00
2023-02-26T05:14:49.707Z,0.00
2023-02-26T05:19:52.686Z,0.00
2023-02-26T05:24:57.168Z,0.00
2023-02-26T05:29:59.961Z,0.00
2023-02-26T05:35:02.827Z,0.00
2023-02-26T05:40:10.843Z,0.00
2023-02-26T05:45:13.795Z,0.00
2023-02-26T05:50:16.625Z,0.00
2023-02-26T05:55:21.180Z,0.00
2023-02-26T06:00:23.971Z,0.00
2023-02-26T06:05:26.809Z,0.00
2023-02-26T06:10:31.021Z,0.00
2023-02-26T06:15:33.816Z,0.00
2023-02-26T06:20:37.103Z,0.00
2023-02-26T06:25:41.319Z,0.00
2023-02-26T06:30:44.094Z,0.00
2023-02-26T06:35:47.025Z,0.00
2023-02-26T06:40:51.231Z,0.00
2023-02-26T06:45:54.126Z,0.00
2023-02-26T06:50:57.033Z,0.00
2023-02-26T06:56:01.108Z,0.00
2023-02-26T07:01:05.515Z,0.00
2023-02-26T07:06:25.924Z,0.00
2023-02-26T07:11:31.402Z,0.00
2023-02-26T07:16:34.314Z,0.00
2023-02-26T07:21:37.077Z,0.00
2023-02-26T07:26:41.223Z,0.00
2023-02-26T07:31:45.416Z,0.50
2023-02-26T07:36:48.256Z,0.50
2023-02-26T07:41:52.396Z,0.00
2023-02-26T07:46:57.901Z,0.00
2023-02-26T07:52:00.884Z,0.00
2023-02-26T07:57:05.787Z,0.00
2023-02-26T08:02:08.799Z,1.50
2023-02-26T08:07:11.681Z,1.00
2023-02-26T08:12:15.910Z,1.00
2023-02-26T08:17:18.839Z,1.50
2023-02-26T08:22:23.678Z,1.25
2023-02-26T08:27:28.101Z,0.50
2023-02-26T08:32:30.928Z,0.75
2023-02-26T08:37:33.986Z,0.50
2023-02-26T08:42:38.699Z,0.75
2023-02-26T08:47:55.606Z,0.00
2023-02-26T08:52:59.977Z,0.00
2023-02-26T08:58:04.507Z,0.75
2023-02-26T09:03:07.446Z,0.00
2023-02-26T09:08:11.486Z,0.00
2023-02-26T09:13:15.817Z,1.25
2023-02-26T09:18:18.655Z,0.00
2023-02-26T09:23:21.442Z,1.00
2023-02-26T09:28:27.088Z,0.00
2023-02-26T09:33:29.920Z,0.00
2023-02-26T09:38:32.708Z,0.00
2023-02-26T09:44:13.594Z,0.00
2023-02-26T09:49:35.808Z,0.00
2023-02-26T09:54:45.664Z,0.00
2023-02-26T09:59:48.996Z,1.25
2023-02-26T10:05:06.411Z,0.00
2023-02-26T10:10:20.393Z,0.00
2023-02-26T10:15:26.857Z,1.00
2023-02-26T10:20:36.721Z,0.00
2023-02-26T10:25:45.265Z,0.00
2023-02-26T10:30:55.437Z,0.00
2023-02-26T10:36:05.622Z,0.00
2023-02-26T10:41:14.588Z,0.00
2023-02-26T10:46:26.725Z,0.00
2023-02-26T10:51:36.129Z,0.00
2023-02-26T10:56:39.043Z,0.00
2023-02-26T11:01:42.083Z,0.00
2023-02-26T11:06:50.855Z,0.00
2023-02-26T11:11:55.332Z,0.00
2023-02-26T11:17:00.644Z,0.50
2023-02-26T11:22:09.616Z,0.00
2023-02-26T11:27:15.648Z,0.00
2023-02-26T11:32:20.950Z,0.00
2023-02-26T11:37:28.729Z,1.50
2023-02-26T11:42:31.358Z,4.00
2023-02-26T11:47:36.005Z,13.00
2023-02-26T11:52:45.277Z,16.60
2023-02-26T11:57:53.997Z,11.25
2023-02-26T12:03:02.067Z,8.75
2023-02-26T12:08:17.771Z,8.50
2023-02-26T12:13:27.654Z,5.00
2023-02-26T12:18:45.563Z,2.00
2023-02-26T12:24:11.943Z,3.50
2023-02-26T12:29:32.559Z,1.00
2023-02-26T12:34:55.300Z,2.00
2023-02-26T12:40:16.812Z,1.00
2023-02-26T12:45:40.241Z,1.50
2023-02-26T12:50:59.557Z,0.00
2023-02-26T12:56:21.864Z,1.50
2023-02-26T13:01:43.375Z,1.75
2023-02-26T13:07:02.158Z,1.50
2023-02-26T13:12:19.113Z,0.75
2023-02-26T13:17:29.078Z,0.75
2023-02-26T13:22:34.988Z,3.00
2023-02-26T13:27:40.571Z,0.50
2023-02-26T13:32:45.347Z,0.75
2023-02-26T13:37:52.185Z,0.25
2023-02-26T13:43:07.199Z,1.25
2023-02-26T13:48:18.385Z,2.00
2023-02-26T13:53:55.283Z,0.00
2023-02-26T13:59:05.594Z,1.00
2023-02-26T14:04:24.768Z,1.00
2023-02-26T14:09:55.404Z,1.00
2023-02-26T14:15:28.718Z,1.75
2023-02-26T14:20:36.387Z,0.00
2023-02-26T14:25:42.830Z,0.75
2023-02-26T14:30:51.163Z,0.00
2023-02-26T14:35:55.625Z,0.50
2023-02-26T14:41:04.230Z,0.00
2023-02-26T14:46:10.608Z,1.00
2023-02-26T14:51:26.414Z,0.25
2023-02-26T14:56:52.070Z,0.50
2023-02-26T15:02:12.710Z,0.33
2023-02-26T15:07:36.449Z,0.00
2023-02-26T15:12:55.601Z,0.50
2023-02-26T15:18:18.301Z,0.00
2023-02-26T15:23:37.241Z,1.00
2023-02-26T15:28:42.105Z,0.00
2023-02-26T15:33:49.282Z,0.00
2023-02-26T15:38:58.574Z,0.00
2023-02-26T15:44:05.442Z,0.00
2023-02-26T15:49:13.457Z,0.50
2023-02-26T15:54:20.184Z,0.00
2023-02-26T15:59:28.241Z,6.75
2023-02-26T16:04:32.461Z,1.00
2023-02-26T16:09:36.800Z,1.00
2023-02-26T16:14:41.809Z,0.75
2023-02-26T16:19:49.756Z,1.75
2023-02-26T16:24:57.049Z,0.75
2023-02-26T16:30:02.123Z,0.50
2023-02-26T16:35:16.804Z,0.00
2023-02-26T16:40:25.327Z,1.00
2023-02-26T16:45:49.487Z,1.50
2023-02-26T16:51:00.713Z,0.25
2023-02-26T16:56:05.557Z,0.00
2023-02-26T17:01:14.255Z,0.00
2023-02-26T17:06:20.518Z,0.75
2023-02-26T17:11:28.019Z,1.25
2023-02-26T17:16:30.974Z,0.50
2023-02-26T17:21:37.258Z,1.00
2023-02-26T17:26:40.057Z,0.00
2023-02-26T17:31:43.702Z,0.75
2023-02-26T17:36:48.433Z,0.00
2023-02-26T17:41:51.332Z,0.00
2023-02-26T17:46:54.293Z,1.75
2023-02-26T17:51:58.403Z,2.75
2023-02-26T17:57:01.503Z,2.75
2023-02-26T18:02:17.352Z,3.00
2023-02-26T18:07:22.971Z,2.00
2023-02-26T18:12:25.966Z,2.00
2023-02-26T18:17:31.108Z,1.00
2023-02-26T18:22:36.379Z,3.75
2023-02-26T18:27:39.251Z,3.00
2023-02-26T18:32:42.147Z,4.25
2023-02-26T18:37:47.339Z,2.00
2023-02-26T18:42:50.415Z,1.25
2023-02-26T18:47:54.302Z,2.00
2023-02-26T18:52:58.581Z,1.50
2023-02-26T18:58:01.383Z,3.50
2023-02-26T19:03:04.616Z,3.00
2023-02-26T19:08:09.053Z,5.50
2023-02-26T19:13:12.098Z,1.25
2023-02-26T19:18:14.901Z,3.75
2023-02-26T19:23:19.820Z,2.25
2023-02-26T19:28:22.626Z,3.25
2023-02-26T19:33:25.732Z,2.00
2023-02-26T19:38:30.082Z,2.00
2023-02-26T19:43:32.999Z,1.75
2023-02-26T19:48:35.839Z,3.50
2023-02-26T19:53:40.140Z,3.75
2023-02-26T19:58:43.643Z,2.00
2023-02-26T20:03:49.010Z,2.75
2023-02-26T20:08:53.476Z,3.00
2023-02-26T20:13:56.484Z,3.25
2023-02-26T20:18:59.908Z,3.50
2023-02-26T20:24:05.139Z,2.75
2023-02-26T20:29:08.650Z,4.25
2023-02-26T20:34:11.378Z,3.00
2023-02-26T20:39:15.815Z,2.25
2023-02-26T20:44:19.259Z,2.25
2023-02-26T20:49:22.272Z,4.75
2023-02-26T20:54:26.699Z,4.00
2023-02-26T20:59:29.860Z,3.50
2023-02-26T21:04:32.750Z,2.50
2023-02-26T21:09:36.955Z,2.75
2023-02-26T21:14:39.851Z,3.00
2023-02-26T21:19:42.685Z,3.50
2023-02-26T21:24:47.198Z,2.00
2023-02-26T21:29:49.933Z,4.75
2023-02-26T21:34:52.835Z,4.00
2023-02-26T21:39:57.381Z,3.25
2023-02-26T21:45:00.505Z,4.00
2023-02-26T21:50:03.321Z,4.00
2023-02-26T21:55:08.265Z,5.75
2023-02-26T22:00:12.244Z,4.00
2023-02-26T22:05:15.492Z,3.75
2023-02-26T22:10:20.124Z,3.25
2023-02-26T22:15:23.153Z,3.00
2023-02-26T22:20:26.001Z,2.75
2023-02-26T22:25:31.056Z,4.00
2023-02-26T22:30:33.925Z,5.25
2023-02-26T22:35:36.705Z,2.75
2023-02-26T22:40:41.084Z,3.75
2023-02-26T22:45:43.887Z,3.00
2023-02-26T22:50:46.628Z,3.50
2023-02-26T22:55:50.770Z,3.25
2023-02-26T23:00:59.568Z,3.50
2023-02-26T23:06:02.370Z,3.25
2023-02-26T23:11:07.907Z,2.25
2023-02-26T23:16:12.224Z,1.50
2023-02-26T23:21:16.400Z,2.00
2023-02-26T23:26:20.510Z,2.00
2023-02-26T23:31:23.475Z,4.00
2023-02-26T23:36:26.432Z,1.75
2023-02-26T23:41:30.657Z,3.00
2023-02-26T23:46:33.518Z,3.00
2023-02-26T23:51:38.321Z,4.25
2023-02-26T23:56:42.868Z,2.50
